Home > Products > Valid Products > MTR

000
SAUS44 KLIX 200752
MTRBVE
METAR KBVE 200751Z AUTO 09011KT 10SM CLR 27/22 A2990 RMK AO2 SLP125
T02720217





000
SAUS44 KLIX 200652
MTRBVE
METAR KBVE 200651Z AUTO 08010KT 10SM FEW033 FEW049 27/22 A2991 RMK
AO2 SLP127 T02720217





000
SAUS44 KLIX 200552
MTRBVE
METAR KBVE 200551Z AUTO 08010G18KT 10SM CLR 27/22 A2992 RMK AO2
SLP132 T02720217 10272 20272 402780228 58009





000
SAUS44 KLIX 200452
MTRBVE
METAR KBVE 200451Z AUTO 08009KT 10SM CLR 27/22 A2994 RMK AO2 SLP137
T02720222





000
SAUS44 KLIX 200352
MTRBVE
METAR KBVE 200351Z AUTO 09010KT 10SM CLR 27/22 A2996 RMK AO2 SLP143
T02720222





000
SAUS44 KLIX 200252
MTRBVE
METAR KBVE 200251Z AUTO 09011KT 10SM FEW070 27/22 A2995 RMK AO2
SLP141 T02720222 53008





000
SAUS44 KLIX 200152
MTRBVE
METAR KBVE 200151Z AUTO 09011KT 10SM CLR 27/22 A2994 RMK AO2 SLP139
T02720217





000
SAUS44 KLIX 200052
MTRBVE
METAR KBVE 200051Z AUTO 09011KT 10SM CLR 27/22 A2992 RMK AO2 SLP133
T02720217





000
SAUS44 KLIX 192352
MTRBVE
METAR KBVE 192351Z AUTO 09011KT 10SM FEW031 OVC120 27/21 A2993 RMK
AO2 SLP134 60001 T02720211 10278 20233 53002





000
SAUS44 KLIX 192252
MTRBVE
METAR KBVE 192251Z AUTO 08012KT 10SM OVC110 28/21 A2991 RMK AO2
SLP129 T02780206





000
SAUS44 KLIX 192152
MTRBVE
METAR KBVE 192151Z AUTO 08014G19KT 10SM OVC120 28/21 A2992 RMK AO2
SLP130 T02780211





000
SAUS44 KLIX 192052
MTRBVE
METAR KBVE 192051Z AUTO 10010KT 10SM SCT019 BKN044 OVC120 27/22
A2992 RMK AO2 RAB18E30 SLP132 P0000 60001 T02670222 56016





000
SAUS44 KLIX 191952
MTRBVE
METAR KBVE 191951Z AUTO 11008KT 10SM FEW029 FEW040 OVC100 26/22
A2992 RMK AO2 RAE22 SLP132 P0000 T02610222





000
SAUS44 KLIX 191852
MTRBVE
METAR KBVE 191851Z AUTO 10009G18KT 9SM -RA BKN060 OVC080 25/22 A2995
RMK AO2 RAE12B35 SLP143 P0001 T02500217





000
SAUS44 KLIX 191804
MTRBVE
SPECI KBVE 191803Z AUTO 11011G22KT 9SM -RA FEW011 BKN046 OVC060
23/22 A2997 RMK AO2 P0001 T02330217





000
SAUS44 KLIX 191757
MTRBVE
SPECI KBVE 191755Z AUTO 11015G21KT 2SM RA BR SCT011 BKN046 OVC060
24/23 A2997 RMK AO2 P0001 T02390233





000
SAUS44 KLIX 191752
MTRBVE
METAR KBVE 191751Z AUTO 11011G18KT 1 1/4SM RA BR FEW009 BKN014
OVC060 24/23 A2997 RMK AO2 RAE09B16 SLP148 P0023 60026 T02390228
10272 20239 51006





000
SAUS44 KLIX 191742
MTRBVE
SPECI KBVE 191741Z AUTO 09012G18KT 1 1/4SM +RA BR SCT009 BKN012
OVC035 24/23 A2997 RMK AO2 RAE09B16 P0013 T02440228





000
SAUS44 KLIX 191735
MTRBVE
SPECI KBVE 191734Z AUTO 11010G18KT 2SM +RA BR BKN012 BKN022 OVC110
25/23 A2997 RMK AO2 RAE09B16 P0004 T02500233





000
SAUS44 KLIX 191732
MTRBVE
SPECI KBVE 191731Z AUTO 07008KT 3SM RA BR SCT012 BKN022 OVC036 25/23
A2996 RMK AO2 RAE09B16 P0003 T02500233





000
SAUS44 KLIX 191710
MTRBVE
SPECI KBVE 191709Z AUTO 13007KT 10SM FEW020 BKN038 OVC110 25/23
A2996 RMK AO2 RAE09 P0002 T02500233





000
SAUS44 KLIX 191700
MTRBVE
SPECI KBVE 191659Z AUTO 13010G16KT 4SM RA BR FEW015 BKN023 OVC044
25/23 A2996 RMK AO2 P0001 T02500233





000
SAUS44 KLIX 191652
MTRBVE
METAR KBVE 191651Z AUTO 12010G17KT 6SM -RA BR SCT018 BKN032 OVC046
25/23 A2997 RMK AO2 RAB25 SLP147 P0003 T02500233





000
SAUS44 KLIX 191641
MTRBVE
SPECI KBVE 191640Z AUTO 07009G19KT 2 1/2SM RA BR SCT020 BKN031
OVC060 25/23 A2996 RMK AO2 RAB25 P0002 T02500233





000
SAUS44 KLIX 191552
MTRBVE
METAR KBVE 191551Z AUTO 11009KT 10SM BKN043 OVC100 27/21 A2996 RMK
AO2 SLP145 T02670211





000
SAUS44 KLIX 191452
MTRBVE
METAR KBVE 191451Z AUTO 10010KT 10SM BKN095 26/22 A2995 RMK AO2
SLP142 60000 T02560217 53005





000
SAUS44 KLIX 191352
MTRBVE
METAR KBVE 191351Z AUTO 11009KT 10SM BKN075 25/22 A2994 RMK AO2
SLP136 T02500222





000
SAUS44 KLIX 191252
MTRBVE
METAR KBVE 191251Z AUTO 09011KT 10SM OVC075 24/22 A2995 RMK AO2
RAE36 SLP140 P0000 T02440217





000
SAUS44 KLIX 191152
MTRBVE
METAR KBVE 191151Z AUTO 10014G20KT 10SM -RA OVC060 24/22 A2994 RMK
AO2 SLP137 P0004 60036 70049 T02390217 10239 20228 53008





000
SAUS44 KLIX 191052
MTRBVE
METAR KBVE 191051Z AUTO 08013G19KT 6SM -RA BR BKN049 OVC065 23/22
A2993 RMK AO2 SLP134 P0006 T02330217





000
SAUS44 KLIX 190952
MTRBVE
METAR KBVE 190951Z AUTO 09015KT 10SM -RA SCT060 BKN110 24/21 A2992
RMK AO2 SLP131 P0001 T02390211





000
SAUS44 KLIX 190852
MTRBVE
METAR KBVE 190851Z AUTO 06010KT 9SM -RA FEW012 BKN033 OVC110 23/22
A2991 RMK AO2 RAB27 SLP129 P0000 60025 T02330217 58009





000
SAUS44 KLIX 190752
MTRBVE
METAR KBVE 190751Z AUTO 10006KT 10SM OVC050 23/20 A2993 RMK AO2
RAE44 SLP134 P0003 T02280200





000
SAUS44 KLIX 190652
MTRBVE
METAR KBVE 190651Z AUTO 00000KT 6SM -RA BR OVC075 23/21 A2993 RMK
AO2 SLP133 P0022 T02330211





000
SAUS44 KLIX 190618
MTRBVE
SPECI KBVE 190617Z AUTO 20009KT 3SM RA BR FEW019 BKN043 OVC070 23/22
A2993 RMK AO2 P0016 T02330222





000
SAUS44 KLIX 190608
MTRBVE
SPECI KBVE 190607Z AUTO 20011KT 2 1/2SM +RA BR FEW018 BKN036 OVC043
23/22 A2993 RMK AO2 P0011 T02330222





000
SAUS44 KLIX 190552
MTRBVE
METAR KBVE 190551Z AUTO 18011KT 2 1/2SM +RA BR FEW020 BKN029 OVC060
24/23 A2994 RMK AO2 RAB0452 SLP138 P0013 60013 T02390228 10278 20233
403000233 53005





000
SAUS44 KLIX 190548
MTRBVE
SPECI KBVE 190546Z AUTO 18010KT 2 1/2SM +RA BR BKN029 BKN050 OVC075
23/22 A2994 RMK AO2 RAB0452 P0010





000
SAUS44 KLIX 190452
MTRBVE
METAR KBVE 190451Z AUTO 11006KT 10SM FEW060 BKN085 OVC110 26/23
A2993 RMK AO2 RAB34E46 SLP133 P0000 T02610233





000
SAUS44 KLIX 190352
MTRBVE
METAR KBVE 190351Z AUTO 13004KT 10SM FEW022 26/24 A2993 RMK AO2
SLP134 T02610239





000
SAUS44 KLIX 190252
MTRBVE
METAR KBVE 190251Z AUTO 20004KT 10SM SCT120 26/24 A2993 RMK AO2
RAE46 SLP133 P0000 60000 T02610244 51012





000
SAUS44 KLIX 190232
MTRBVE
SPECI KBVE 190231Z AUTO 19003KT 10SM -RA SCT022 26/24 A2993 RMK AO2
P0000 T02610239





000
SAUS44 KLIX 190225
MTRBVE
SPECI KBVE 190224Z AUTO 18003KT 10SM -RA BKN022 BKN120 27/24 A2993
RMK AO2 P0000 T02670239





000
SAUS44 KLIX 190152
MTRBVE
METAR KBVE 190151Z AUTO 21004KT 10SM -RA SCT120 27/24 A2993 RMK AO2
SLP133 P0000 T02670239





000
SAUS44 KLIX 190052
MTRBVE
METAR KBVE 190051Z AUTO 00000KT 10SM -RA FEW023 BKN110 28/24 A2990
RMK AO2 RAB50 SLP124 P0000 T02780239





000
SAUS44 KLIX 182352
MTRBVE
METAR KBVE 182351Z AUTO 18004KT 10SM CLR 28/23 A2989 RMK AO2 SLP121
T02780233 10300 20278 53002





000
SAUS44 KLIX 182252
MTRBVE
METAR KBVE 182251Z AUTO 17007KT 10SM FEW075 FEW090 SCT110 28/23
A2988 RMK AO2 SLP118 T02830233





000
SAUS44 KLIX 182152
MTRBVE
METAR KBVE 182151Z AUTO 19006KT 10SM FEW028 29/24 A2987 RMK AO2
SLP115 T02890239





000
SAUS44 KLIX 182118
MTRBVE
SPECI KBVE 182117Z AUTO 17007KT 10SM FEW002 29/24 A2988 RMK AO2
T02890239





000
SAUS44 KLIX 182052
MTRBVE
METAR KBVE 182051Z AUTO 17008KT 10SM FEW120 29/23 A2988 RMK AO2
SLP119 T02890228 57016





000
SAUS44 KLIX 181952
MTRBVE
METAR KBVE 181951Z AUTO 16010KT 10SM SCT032 29/24 A2990 RMK AO2
SLP124 T02890239





000
SAUS44 KLIX 181852
MTRBVE
METAR KBVE 181851Z AUTO 21007KT 10SM FEW028 FEW035 BKN110 28/24
A2991 RMK AO2 SLP129 T02830239





000
SAUS44 KLIX 181752
MTRBVE
METAR KBVE 181751Z AUTO 10006KT 10SM CLR 29/22 A2993 RMK AO2 SLP134
T02940222 10300 20261 58008





000
SAUS44 KLIX 181652
MTRBVE
METAR KBVE 181651Z AUTO 06005KT 10SM FEW025 SCT060 30/24 A2994 RMK
AO2 SLP137 T03000239





000
SAUS44 KLIX 181552
MTRBVE
METAR KBVE 181551Z AUTO 08003KT 10SM FEW025 29/22 A2996 RMK AO2
SLP144 T02940222





000
SAUS44 KLIX 181452
MTRBVE
METAR KBVE 181451Z AUTO 09005KT 10SM CLR 29/24 A2995 RMK AO2 SLP143
T02940239 51012





000
SAUS44 KLIX 181352
MTRBVE
METAR KBVE 181351Z AUTO 11005KT 10SM SCT120 28/24 A2994 RMK AO2
SLP139 T02830244





000
SAUS44 KLIX 181252
MTRBVE
METAR KBVE 181251Z AUTO 12003KT 10SM BKN120 27/25 A2994 RMK AO2
SLP137 T02720250





000
SAUS44 KLIX 181152
MTRBVE
METAR KBVE 181151Z AUTO 00000KT 9SM BKN120 27/24 A2992 RMK AO2
SLP131 T02670244 10272 20256 53010





000
SAUS44 KLIX 181052
MTRBVE
METAR KBVE 181051Z AUTO 00000KT 10SM CLR 26/24 A2991 RMK AO2 SLP127
T02610244





000
SAUS44 KLIX 180952
MTRBVE
METAR KBVE 180951Z AUTO 00000KT 10SM CLR 26/24 A2989 RMK AO2 SLP121
T02610244





000
SAUS44 KLIX 180852
MTRBVE
METAR KBVE 180851Z AUTO 00000KT 10SM CLR 26/24 A2989 RMK AO2 SLP121
T02610244 58008





000
SAUS44 KLIX 180752
MTRBVE
METAR KBVE 180751Z AUTO 00000KT 10SM CLR 26/24 A2990 RMK AO2 SLP124
T02610244





000
SAUS44 KLIX 180652
MTRBVE
METAR KBVE 180651Z AUTO 00000KT 10SM CLR 27/24 A2990 RMK AO2 SLP126
T02670244





000
SAUS44 KLIX 180552
MTRBVE
METAR KBVE 180551Z AUTO 00000KT 10SM FEW028 27/24 A2991 RMK AO2
SLP128 T02670244 10278 20261 403110244 58007





000
SAUS44 KLIX 180452
MTRBVE
METAR KBVE 180451Z AUTO 00000KT 10SM CLR 27/24 A2993 RMK AO2 SLP134
T02670239





000
SAUS44 KLIX 180352
MTRBVE
METAR KBVE 180351Z AUTO 00000KT 10SM CLR 26/24 A2993 RMK AO2 SLP133
T02610244





000
SAUS44 KLIX 180252
MTRBVE
METAR KBVE 180251Z AUTO 00000KT 10SM CLR 27/24 A2993 RMK AO2 SLP136
T02670244 53006





000
SAUS44 KLIX 180152
MTRBVE
METAR KBVE 180151Z AUTO 14003KT 10SM CLR 27/24 A2992 RMK AO2 SLP132
T02670244





000
SAUS44 KLIX 180052
MTRBVE
METAR KBVE 180051Z AUTO 00000KT 10SM CLR 27/23 A2992 RMK AO2 SLP132
T02720233





000
SAUS44 KLIX 172352
MTRBVE
METAR KBVE 172351Z AUTO 00000KT 10SM CLR 28/23 A2991 RMK AO2 SLP129
T02780233 10311 20278 56003





000
SAUS44 KLIX 172252
MTRBVE
METAR KBVE 172251Z AUTO 00000KT 10SM CLR 28/23 A2992 RMK AO2 SLP131
T02830228





000
SAUS44 KLIX 172152
MTRBVE
METAR KBVE 172151Z AUTO 13003KT 10SM FEW030 28/22 A2991 RMK AO2
SLP128 T02780222





000
SAUS44 KLIX 172052
MTRBVE
METAR KBVE 172051Z AUTO 14005KT 10SM FEW031 28/22 A2992 RMK AO2
SLP132 T02780222 58010





000
SAUS44 KLIX 172038
MTRBVE
SPECI KBVE 172037Z AUTO 14007KT 10SM BKN031 BKN070 28/23 A2992 RMK
AO2 T02780228





000
SAUS44 KLIX 171952
MTRBVE
METAR KBVE 171951Z AUTO VRB03KT 10SM BKN025 BKN031 29/23 A2994 RMK
AO2 SLP137 T02940228





000
SAUS44 KLIX 171852
MTRBVE
METAR KBVE 171851Z AUTO VRB04KT 10SM CLR 31/23 A2994 RMK AO2 SLP139
T03060233





000
SAUS44 KLIX 171752
MTRBVE
METAR KBVE 171751Z AUTO 06005KT 10SM FEW022 FEW028 30/23 A2995 RMK
AO2 SLP142 T03000233 10306 20256 56010





000
SAUS44 KLIX 171652
MTRBVE
METAR KBVE 171651Z AUTO 00000KT 10SM SCT023 SCT034 30/24 A2997 RMK
AO2 SLP149 T03000239





000
SAUS44 KLIX 171552
MTRBVE
METAR KBVE 171551Z AUTO 00000KT 10SM CLR 29/23 A2998 RMK AO2 SLP153
T02940233





000
SAUS44 KLIX 171452
MTRBVE
METAR KBVE 171451Z AUTO 00000KT 10SM CLR 28/22 A2998 RMK AO2 SLP151
T02830222 50002





000
SAUS44 KLIX 171352
MTRBVE
METAR KBVE 171351Z AUTO 04003KT 10SM CLR 28/22 A2998 RMK AO2 SLP151
T02780222





000
SAUS44 KLIX 171252
MTRBVE
METAR KBVE 171251Z AUTO 11006KT 9SM FEW019 SCT050 26/23 A2997 RMK
AO2 SLP149 T02560228





000
SAUS44 KLIX 171153
MTRBVE
METAR KBVE 171151Z AUTO 00000KT 10SM SCT043 26/23 A2997 RMK AO2
RAE13 SLP148 P0000 60003 70110 T02560233 10256 20244 53002





000
SAUS44 KLIX 171052
MTRBVE
METAR KBVE 171051Z AUTO 02003KT 4SM -RA BR FEW029 SCT040 BKN070
25/24 A2996 RMK AO2 RAB45 SLP144 P0003 T02500239





000
SAUS44 KLIX 170952
MTRBVE
METAR KBVE 170951Z AUTO 27005KT 10SM CLR 25/24 A2995 RMK AO2 SLP142
T02500239





000
SAUS44 KLIX 170852
MTRBVE
METAR KBVE 170851Z AUTO 26003KT 10SM CLR 25/24 A2996 RMK AO2 SLP146
T02500239 55008





    US Dept of Commerce
    National Oceanic and Atmospheric Administration
    National Weather Service
    1325 East West Highway
    Silver Spring, MD 20910
    Page Author: NWS Internet Services Team
Disclaimer
Information Quality
Credits
Glossary
Privacy Policy
Freedom of Information Act (FOIA)
About Us
Career Opportunities